sensor_id;sensor_type;location;lat;lon;timestamp;pressure;altitude;pressure_sealevel;temperature;humidity
2268;BME280;11052;43.338;25.502;2023-09-19T00:00:17;100922.94;;;17.37;100.00
2268;BME280;11052;43.338;25.502;2023-09-19T00:02:46;100921.63;;;17.29;100.00
2268;BME280;11052;43.338;25.502;2023-09-19T00:05:18;100919.53;;;17.18;100.00
2268;BME280;11052;43.338;25.502;2023-09-19T00:07:49;100911.81;;;17.15;100.00
2268;BME280;11052;43.338;25.502;2023-09-19T00:10:19;100907.78;;;17.08;100.00
2268;BME280;11052;43.338;25.502;2023-09-19T00:12:48;100917.00;;;16.98;100.00
2268;BME280;11052;43.338;25.502;2023-09-19T00:15:17;100914.38;;;16.98;100.00
2268;BME280;11052;43.338;25.502;2023-09-19T00:17:44;100912.53;;;17.00;100.00
2268;BME280;11052;43.338;25.502;2023-09-19T00:20:13;100917.28;;;16.92;100.00
2268;BME280;11052;43.338;25.502;2023-09-19T00:22:43;100918.63;;;17.00;100.00
2268;BME280;11052;43.338;25.502;2023-09-19T00:25:11;100917.78;;;17.00;100.00
2268;BME280;11052;43.338;25.502;2023-09-19T00:27:41;100920.69;;;16.94;100.00
2268;BME280;11052;43.338;25.502;2023-09-19T00:30:11;100920.59;;;16.95;100.00
2268;BME280;11052;43.338;25.502;2023-09-19T00:32:42;100913.41;;;16.61;100.00
2268;BME280;11052;43.338;25.502;2023-09-19T00:35:10;100911.19;;;16.33;100.00
2268;BME280;11052;43.338;25.502;2023-09-19T00:37:37;100916.69;;;16.27;100.00
2268;BME280;11052;43.338;25.502;2023-09-19T00:40:06;100913.63;;;16.18;100.00
2268;BME280;11052;43.338;25.502;2023-09-19T00:42:36;100906.91;;;16.12;100.00
2268;BME280;11052;43.338;25.502;2023-09-19T00:45:04;100913.09;;;16.10;100.00
2268;BME280;11052;43.338;25.502;2023-09-19T00:47:33;100912.25;;;16.09;100.00
2268;BME280;11052;43.338;25.502;2023-09-19T00:50:00;100894.66;;;15.92;100.00
2268;BME280;11052;43.338;25.502;2023-09-19T00:52:28;100892.19;;;15.89;100.00
2268;BME280;11052;43.338;25.502;2023-09-19T00:54:57;100894.81;;;15.89;100.00
2268;BME280;11052;43.338;25.502;2023-09-19T00:57:25;100896.56;;;15.89;100.00
2268;BME280;11052;43.338;25.502;2023-09-19T00:59:54;100893.75;;;15.93;100.00
2268;BME280;11052;43.338;25.502;2023-09-19T01:02:22;100893.63;;;15.96;100.00
2268;BME280;11052;43.338;25.502;2023-09-19T01:04:51;100888.78;;;15.87;100.00
2268;BME280;11052;43.338;25.502;2023-09-19T01:07:19;100901.53;;;15.74;100.00
2268;BME280;11052;43.338;25.502;2023-09-19T01:09:47;100893.78;;;15.51;100.00
2268;BME280;11052;43.338;25.502;2023-09-19T01:12:16;100889.84;;;15.41;100.00
2268;BME280;11052;43.338;25.502;2023-09-19T01:14:55;100888.63;;;15.28;100.00
2268;BME280;11052;43.338;25.502;2023-09-19T01:17:29;100890.81;;;15.17;100.00
2268;BME280;11052;43.338;25.502;2023-09-19T01:20:15;100885.72;;;15.14;100.00
2268;BME280;11052;43.338;25.502;2023-09-19T01:22:53;100886.75;;;15.09;100.00
2268;BME280;11052;43.338;25.502;2023-09-19T01:25:56;100885.34;;;15.01;100.00
2268;BME280;11052;43.338;25.502;2023-09-19T01:28:32;100890.69;;;14.98;100.00
2268;BME280;11052;43.338;25.502;2023-09-19T01:31:10;100884.59;;;14.97;100.00
2268;BME280;11052;43.338;25.502;2023-09-19T01:33:55;100887.38;;;14.93;100.00
2268;BME280;11052;43.338;25.502;2023-09-19T01:36:26;100887.28;;;14.96;100.00
2268;BME280;11052;43.338;25.502;2023-09-19T01:38:55;100893.81;;;14.84;100.00
2268;BME280;11052;43.338;25.502;2023-09-19T01:41:29;100888.94;;;14.75;100.00
2268;BME280;11052;43.338;25.502;2023-09-19T01:43:59;100893.41;;;14.73;100.00
2268;BME280;11052;43.338;25.502;2023-09-19T01:46:34;100882.41;;;14.65;100.00
2268;BME280;11052;43.338;25.502;2023-09-19T01:49:08;100882.28;;;14.68;100.00
2268;BME280;11052;43.338;25.502;2023-09-19T01:51:48;100878.44;;;14.76;100.00
2268;BME280;11052;43.338;25.502;2023-09-19T01:54:24;100873.38;;;14.95;100.00
2268;BME280;11052;43.338;25.502;2023-09-19T01:56:59;100874.88;;;15.01;100.00
2268;BME280;11052;43.338;25.502;2023-09-19T01:59:35;100869.00;;;14.96;100.00
2268;BME280;11052;43.338;25.502;2023-09-19T02:02:06;100866.50;;;14.93;100.00
2268;BME280;11052;43.338;25.502;2023-09-19T02:04:34;100861.94;;;14.98;100.00
2268;BME280;11052;43.338;25.502;2023-09-19T02:07:02;100863.94;;;14.91;100.00
2268;BME280;11052;43.338;25.502;2023-09-19T02:09:31;100870.56;;;15.00;100.00
2268;BME280;11052;43.338;25.502;2023-09-19T02:12:01;100868.88;;;14.99;100.00
2268;BME280;11052;43.338;25.502;2023-09-19T02:14:30;100870.41;;;15.04;100.00
2268;BME280;11052;43.338;25.502;2023-09-19T02:16:57;100870.47;;;15.03;100.00
2268;BME280;11052;43.338;25.502;2023-09-19T02:19:27;100867.66;;;15.07;100.00
2268;BME280;11052;43.338;25.502;2023-09-19T02:21:55;100868.03;;;15.20;100.00
2268;BME280;11052;43.338;25.502;2023-09-19T02:24:22;100864.50;;;15.21;100.00
2268;BME280;11052;43.338;25.502;2023-09-19T02:26:52;100864.06;;;15.32;100.00
2268;BME280;11052;43.338;25.502;2023-09-19T02:29:20;100861.66;;;15.27;100.00
2268;BME280;11052;43.338;25.502;2023-09-19T02:31:48;100861.97;;;15.20;100.00
2268;BME280;11052;43.338;25.502;2023-09-19T02:34:15;100863.47;;;15.03;100.00
2268;BME280;11052;43.338;25.502;2023-09-19T02:36:44;100864.97;;;14.87;100.00
2268;BME280;11052;43.338;25.502;2023-09-19T02:39:11;100865.59;;;14.72;100.00
2268;BME280;11052;43.338;25.502;2023-09-19T02:41:38;100866.69;;;14.66;100.00
2268;BME280;11052;43.338;25.502;2023-09-19T02:44:07;100871.22;;;14.61;100.00
2268;BME280;11052;43.338;25.502;2023-09-19T02:46:34;100873.84;;;14.61;100.00
2268;BME280;11052;43.338;25.502;2023-09-19T02:49:03;100868.84;;;14.55;100.00
2268;BME280;11052;43.338;25.502;2023-09-19T02:51:32;100871.97;;;14.41;100.00
2268;BME280;11052;43.338;25.502;2023-09-19T02:54:01;100872.47;;;14.26;100.00
2268;BME280;11052;43.338;25.502;2023-09-19T02:56:29;100868.44;;;14.18;100.00
2268;BME280;11052;43.338;25.502;2023-09-19T02:58:58;100867.00;;;14.09;100.00
2268;BME280;11052;43.338;25.502;2023-09-19T03:01:26;100857.06;;;13.95;100.00
2268;BME280;11052;43.338;25.502;2023-09-19T03:03:53;100863.41;;;13.88;100.00
2268;BME280;11052;43.338;25.502;2023-09-19T03:06:21;100862.63;;;13.86;100.00
2268;BME280;11052;43.338;25.502;2023-09-19T03:08:49;100860.28;;;13.78;100.00
2268;BME280;11052;43.338;25.502;2023-09-19T03:11:18;100857.72;;;13.77;100.00
2268;BME280;11052;43.338;25.502;2023-09-19T03:13:51;100859.94;;;13.63;100.00
2268;BME280;11052;43.338;25.502;2023-09-19T03:16:19;100861.25;;;13.50;100.00
2268;BME280;11052;43.338;25.502;2023-09-19T03:18:47;100864.66;;;13.52;100.00
2268;BME280;11052;43.338;25.502;2023-09-19T03:21:15;100866.38;;;13.53;100.00
2268;BME280;11052;43.338;25.502;2023-09-19T03:23:42;100864.00;;;13.45;100.00
2268;BME280;11052;43.338;25.502;2023-09-19T03:26:11;100872.78;;;13.42;100.00
2268;BME280;11052;43.338;25.502;2023-09-19T03:28:43;100871.19;;;13.38;100.00
2268;BME280;11052;43.338;25.502;2023-09-19T03:31:11;100875.13;;;13.24;100.00
2268;BME280;11052;43.338;25.502;2023-09-19T03:33:38;100877.00;;;13.19;100.00
2268;BME280;11052;43.338;25.502;2023-09-19T03:36:06;100875.34;;;13.16;100.00
2268;BME280;11052;43.338;25.502;2023-09-19T03:38:33;100879.69;;;13.16;100.00
2268;BME280;11052;43.338;25.502;2023-09-19T03:41:01;100886.13;;;13.04;100.00
2268;BME280;11052;43.338;25.502;2023-09-19T03:43:28;100891.06;;;12.85;100.00
2268;BME280;11052;43.338;25.502;2023-09-19T03:45:56;100891.09;;;12.84;100.00
2268;BME280;11052;43.338;25.502;2023-09-19T03:48:23;100880.66;;;12.85;100.00
2268;BME280;11052;43.338;25.502;2023-09-19T03:50:50;100887.59;;;12.85;100.00
2268;BME280;11052;43.338;25.502;2023-09-19T03:53:18;100885.75;;;12.88;100.00
2268;BME280;11052;43.338;25.502;2023-09-19T03:55:45;100891.16;;;12.82;100.00
2268;BME280;11052;43.338;25.502;2023-09-19T03:58:13;100885.28;;;12.75;100.00
2268;BME280;11052;43.338;25.502;2023-09-19T04:00:40;100883.03;;;12.63;100.00
2268;BME280;11052;43.338;25.502;2023-09-19T04:03:08;100880.56;;;12.59;100.00
2268;BME280;11052;43.338;25.502;2023-09-19T04:05:44;100891.34;;;12.45;100.00
2268;BME280;11052;43.338;25.502;2023-09-19T04:08:12;100879.50;;;12.35;100.00
2268;BME280;11052;43.338;25.502;2023-09-19T04:10:41;100877.88;;;12.31;100.00
2268;BME280;11052;43.338;25.502;2023-09-19T04:13:09;100877.94;;;12.29;100.00
2268;BME280;11052;43.338;25.502;2023-09-19T04:15:36;100877.00;;;12.32;100.00
2268;BME280;11052;43.338;25.502;2023-09-19T04:18:03;100877.72;;;12.37;100.00
2268;BME280;11052;43.338;25.502;2023-09-19T04:20:32;100882.03;;;12.38;100.00
2268;BME280;11052;43.338;25.502;2023-09-19T04:22:59;100877.53;;;12.43;100.00
2268;BME280;11052;43.338;25.502;2023-09-19T04:25:26;100879.41;;;12.38;100.00
2268;BME280;11052;43.338;25.502;2023-09-19T04:27:54;100880.91;;;12.46;100.00
2268;BME280;11052;43.338;25.502;2023-09-19T04:30:21;100886.75;;;12.55;100.00
2268;BME280;11052;43.338;25.502;2023-09-19T04:32:48;100889.00;;;12.67;100.00
2268;BME280;11052;43.338;25.502;2023-09-19T04:35:16;100888.59;;;12.80;100.00
2268;BME280;11052;43.338;25.502;2023-09-19T04:37:45;100882.03;;;12.97;100.00
2268;BME280;11052;43.338;25.502;2023-09-19T04:40:13;100882.19;;;13.20;100.00
2268;BME280;11052;43.338;25.502;2023-09-19T04:42:44;100887.31;;;13.50;100.00
2268;BME280;11052;43.338;25.502;2023-09-19T04:45:12;100886.28;;;13.80;100.00
2268;BME280;11052;43.338;25.502;2023-09-19T04:47:39;100882.59;;;14.10;100.00
2268;BME280;11052;43.338;25.502;2023-09-19T04:50:08;100881.78;;;14.58;100.00
2268;BME280;11052;43.338;25.502;2023-09-19T04:52:39;100876.72;;;14.99;100.00
2268;BME280;11052;43.338;25.502;2023-09-19T04:55:10;100874.28;;;15.38;100.00
2268;BME280;11052;43.338;25.502;2023-09-19T04:57:39;100871.19;;;15.70;100.00
2268;BME280;11052;43.338;25.502;2023-09-19T05:00:07;100862.03;;;16.01;100.00
2268;BME280;11052;43.338;25.502;2023-09-19T05:02:38;100862.66;;;16.26;100.00
2268;BME280;11052;43.338;25.502;2023-09-19T05:05:07;100867.34;;;16.57;100.00
2268;BME280;11052;43.338;25.502;2023-09-19T05:07:34;100865.13;;;16.87;100.00
2268;BME280;11052;43.338;25.502;2023-09-19T05:10:01;100874.97;;;17.18;100.00
2268;BME280;11052;43.338;25.502;2023-09-19T05:12:31;100868.38;;;17.46;100.00
2268;BME280;11052;43.338;25.502;2023-09-19T05:14:58;100879.59;;;17.66;100.00
2268;BME280;11052;43.338;25.502;2023-09-19T05:17:26;100871.72;;;18.01;100.00
2268;BME280;11052;43.338;25.502;2023-09-19T05:19:53;100877.28;;;18.28;100.00
2268;BME280;11052;43.338;25.502;2023-09-19T05:22:20;100881.63;;;18.62;100.00
2268;BME280;11052;43.338;25.502;2023-09-19T05:24:50;100877.22;;;18.94;100.00
2268;BME280;11052;43.338;25.502;2023-09-19T05:27:18;100880.66;;;19.26;100.00
2268;BME280;11052;43.338;25.502;2023-09-19T05:29:48;100874.00;;;19.50;100.00
2268;BME280;11052;43.338;25.502;2023-09-19T05:32:16;100877.53;;;19.65;100.00
2268;BME280;11052;43.338;25.502;2023-09-19T05:34:45;100871.25;;;19.68;100.00
2268;BME280;11052;43.338;25.502;2023-09-19T05:37:12;100868.91;;;19.63;100.00
2268;BME280;11052;43.338;25.502;2023-09-19T05:39:42;100861.44;;;20.00;100.00
2268;BME280;11052;43.338;25.502;2023-09-19T05:42:09;100865.03;;;20.27;100.00
2268;BME280;11052;43.338;25.502;2023-09-19T05:44:36;100869.66;;;20.66;100.00
2268;BME280;11052;43.338;25.502;2023-09-19T05:47:05;100865.69;;;21.00;100.00
2268;BME280;11052;43.338;25.502;2023-09-19T05:49:34;100869.25;;;20.99;100.00
2268;BME280;11052;43.338;25.502;2023-09-19T05:52:04;100862.75;;;20.78;100.00
2268;BME280;11052;43.338;25.502;2023-09-19T05:54:31;100862.66;;;21.06;100.00
2268;BME280;11052;43.338;25.502;2023-09-19T05:56:59;100852.09;;;21.06;100.00
2268;BME280;11052;43.338;25.502;2023-09-19T05:59:27;100848.66;;;21.33;100.00
2268;BME280;11052;43.338;25.502;2023-09-19T06:01:54;100854.53;;;21.63;100.00
2268;BME280;11052;43.338;25.502;2023-09-19T06:04:22;100854.00;;;21.96;100.00
2268;BME280;11052;43.338;25.502;2023-09-19T06:06:51;100859.00;;;22.26;100.00
2268;BME280;11052;43.338;25.502;2023-09-19T06:09:18;100854.13;;;22.33;100.00
2268;BME280;11052;43.338;25.502;2023-09-19T06:11:45;100856.88;;;22.18;100.00
2268;BME280;11052;43.338;25.502;2023-09-19T06:14:12;100854.97;;;22.33;100.00
2268;BME280;11052;43.338;25.502;2023-09-19T06:16:40;100856.88;;;22.80;100.00
2268;BME280;11052;43.338;25.502;2023-09-19T06:19:08;100852.19;;;22.97;100.00
2268;BME280;11052;43.338;25.502;2023-09-19T06:21:37;100849.81;;;22.68;100.00
2268;BME280;11052;43.338;25.502;2023-09-19T06:24:04;100852.47;;;22.55;100.00
2268;BME280;11052;43.338;25.502;2023-09-19T06:26:32;100855.72;;;22.72;100.00
2268;BME280;11052;43.338;25.502;2023-09-19T06:28:59;100855.13;;;23.05;100.00
2268;BME280;11052;43.338;25.502;2023-09-19T06:31:26;100855.44;;;23.00;100.00
2268;BME280;11052;43.338;25.502;2023-09-19T06:33:53;100853.53;;;23.02;100.00
2268;BME280;11052;43.338;25.502;2023-09-19T06:36:20;100843.69;;;22.68;100.00
2268;BME280;11052;43.338;25.502;2023-09-19T06:38:49;100847.22;;;22.92;100.00
2268;BME280;11052;43.338;25.502;2023-09-19T06:41:17;100848.69;;;22.96;100.00
2268;BME280;11052;43.338;25.502;2023-09-19T06:43:45;100842.16;;;23.48;100.00
2268;BME280;11052;43.338;25.502;2023-09-19T06:46:12;100845.94;;;23.57;100.00
2268;BME280;11052;43.338;25.502;2023-09-19T06:48:39;100834.31;;;23.70;100.00
2268;BME280;11052;43.338;25.502;2023-09-19T06:51:07;100838.72;;;24.05;100.00
2268;BME280;11052;43.338;25.502;2023-09-19T06:53:35;100835.34;;;24.36;100.00
2268;BME280;11052;43.338;25.502;2023-09-19T06:56:04;100837.47;;;24.76;100.00
2268;BME280;11052;43.338;25.502;2023-09-19T06:58:32;100841.88;;;25.09;100.00
2268;BME280;11052;43.338;25.502;2023-09-19T07:00:59;100838.25;;;25.31;100.00
2268;BME280;11052;43.338;25.502;2023-09-19T07:03:26;100836.28;;;25.44;100.00
2268;BME280;11052;43.338;25.502;2023-09-19T07:05:54;100838.41;;;25.50;100.00
2268;BME280;11052;43.338;25.502;2023-09-19T07:08:21;100834.00;;;25.39;100.00
2268;BME280;11052;43.338;25.502;2023-09-19T07:10:48;100821.16;;;25.24;100.00
2268;BME280;11052;43.338;25.502;2023-09-19T07:13:19;100824.72;;;24.47;100.00
2268;BME280;11052;43.338;25.502;2023-09-19T07:15:46;100817.63;;;24.59;100.00
2268;BME280;11052;43.338;25.502;2023-09-19T07:18:15;100816.41;;;24.52;100.00
2268;BME280;11052;43.338;25.502;2023-09-19T07:20:43;100815.94;;;24.58;100.00
2268;BME280;11052;43.338;25.502;2023-09-19T07:23:14;100810.56;;;24.80;100.00
2268;BME280;11052;43.338;25.502;2023-09-19T07:25:42;100804.25;;;25.04;100.00
2268;BME280;11052;43.338;25.502;2023-09-19T07:28:09;100806.59;;;25.18;100.00
2268;BME280;11052;43.338;25.502;2023-09-19T07:30:37;100800.19;;;25.62;100.00
2268;BME280;11052;43.338;25.502;2023-09-19T07:33:07;100804.88;;;26.00;91.50
2268;BME280;11052;43.338;25.502;2023-09-19T07:35:37;100797.34;;;25.33;68.70
2268;BME280;11052;43.338;25.502;2023-09-19T07:38:06;100793.47;;;25.58;71.80
2268;BME280;11052;43.338;25.502;2023-09-19T07:40:33;100792.78;;;25.77;69.99
2268;BME280;11052;43.338;25.502;2023-09-19T07:43:00;100787.00;;;25.72;67.39
2268;BME280;11052;43.338;25.502;2023-09-19T07:45:29;100785.06;;;25.53;66.24
2268;BME280;11052;43.338;25.502;2023-09-19T07:47:58;100784.72;;;25.26;65.33
2268;BME280;11052;43.338;25.502;2023-09-19T07:50:27;100776.31;;;25.21;65.33
2268;BME280;11052;43.338;25.502;2023-09-19T07:52:54;100767.97;;;25.67;66.32
2268;BME280;11052;43.338;25.502;2023-09-19T07:55:22;100766.03;;;25.69;65.75
2268;BME280;11052;43.338;25.502;2023-09-19T07:57:51;100769.13;;;25.74;65.04
2268;BME280;11052;43.338;25.502;2023-09-19T08:00:18;100771.34;;;25.99;65.21
2268;BME280;11052;43.338;25.502;2023-09-19T08:02:45;100767.84;;;26.39;65.00
2268;BME280;11052;43.338;25.502;2023-09-19T08:05:14;100769.81;;;26.37;62.49
2268;BME280;11052;43.338;25.502;2023-09-19T08:07:44;100763.41;;;26.59;62.88
2268;BME280;11052;43.338;25.502;2023-09-19T08:10:14;100762.28;;;26.52;62.14
2268;BME280;11052;43.338;25.502;2023-09-19T08:12:42;100768.00;;;26.07;61.01
2268;BME280;11052;43.338;25.502;2023-09-19T08:15:12;100750.22;;;25.98;60.06
2268;BME280;11052;43.338;25.502;2023-09-19T08:17:40;100752.59;;;26.01;60.16
2268;BME280;11052;43.338;25.502;2023-09-19T08:20:08;100744.47;;;26.02;59.18
2268;BME280;11052;43.338;25.502;2023-09-19T08:22:44;100755.69;;;26.06;62.33
2268;BME280;11052;43.338;25.502;2023-09-19T08:25:13;100754.41;;;26.00;61.42
2268;BME280;11052;43.338;25.502;2023-09-19T08:27:41;100747.59;;;26.17;60.26
2268;BME280;11052;43.338;25.502;2023-09-19T08:30:10;100739.16;;;26.42;62.53
2268;BME280;11052;43.338;25.502;2023-09-19T08:32:37;100737.69;;;26.78;61.69
2268;BME280;11052;43.338;25.502;2023-09-19T08:35:06;100740.91;;;27.01;59.55
2268;BME280;11052;43.338;25.502;2023-09-19T08:37:34;100741.28;;;27.26;55.35
2268;BME280;11052;43.338;25.502;2023-09-19T08:40:03;100734.66;;;27.49;58.24
2268;BME280;11052;43.338;25.502;2023-09-19T08:42:47;100738.19;;;27.40;57.27
2268;BME280;11052;43.338;25.502;2023-09-19T08:45:15;100725.91;;;27.10;55.84
2268;BME280;11052;43.338;25.502;2023-09-19T08:47:47;100721.00;;;27.05;56.29
2268;BME280;11052;43.338;25.502;2023-09-19T08:50:22;100711.06;;;27.07;55.13
2268;BME280;11052;43.338;25.502;2023-09-19T08:52:55;100710.63;;;27.12;54.55
2268;BME280;11052;43.338;25.502;2023-09-19T08:55:28;100706.28;;;27.01;53.13
2268;BME280;11052;43.338;25.502;2023-09-19T08:58:00;100702.91;;;27.28;56.63
2268;BME280;11052;43.338;25.502;2023-09-19T09:00:27;100704.44;;;27.31;53.83
2268;BME280;11052;43.338;25.502;2023-09-19T09:02:56;100704.66;;;27.47;52.78
2268;BME280;11052;43.338;25.502;2023-09-19T09:05:24;100699.56;;;27.17;53.23
2268;BME280;11052;43.338;25.502;2023-09-19T09:07:52;100695.19;;;27.25;52.46
2268;BME280;11052;43.338;25.502;2023-09-19T09:10:21;100690.66;;;27.45;51.38
2268;BME280;11052;43.338;25.502;2023-09-19T09:12:51;100688.91;;;27.73;54.53
2268;BME280;11052;43.338;25.502;2023-09-19T09:15:19;100692.19;;;27.85;51.71
2268;BME280;11052;43.338;25.502;2023-09-19T09:17:48;100691.00;;;27.97;51.99
2268;BME280;11052;43.338;25.502;2023-09-19T09:20:16;100695.75;;;28.03;50.85
2268;BME280;11052;43.338;25.502;2023-09-19T09:22:53;100689.03;;;27.99;49.71
2268;BME280;11052;43.338;25.502;2023-09-19T09:25:21;100690.41;;;27.75;48.88
2268;BME280;11052;43.338;25.502;2023-09-19T09:28:00;100694.69;;;28.14;54.57
2268;BME280;11052;43.338;25.502;2023-09-19T09:30:35;100692.63;;;28.53;52.43
2268;BME280;11052;43.338;25.502;2023-09-19T09:33:09;100693.97;;;28.75;48.21
2268;BME280;11052;43.338;25.502;2023-09-19T09:35:38;100687.56;;;28.67;50.18
2268;BME280;11052;43.338;25.502;2023-09-19T09:38:13;100686.31;;;28.54;49.58
2268;BME280;11052;43.338;25.502;2023-09-19T09:40:49;100676.84;;;28.24;48.64
2268;BME280;11052;43.338;25.502;2023-09-19T09:43:32;100685.78;;;28.50;49.04
2268;BME280;11052;43.338;25.502;2023-09-19T09:46:11;100685.78;;;28.50;45.11
2268;BME280;11052;43.338;25.502;2023-09-19T09:48:57;100682.63;;;28.72;48.85
2268;BME280;11052;43.338;25.502;2023-09-19T09:51:38;100677.78;;;29.12;48.76
2268;BME280;11052;43.338;25.502;2023-09-19T09:54:11;100681.81;;;29.16;44.79
2268;BME280;11052;43.338;25.502;2023-09-19T09:56:52;100681.63;;;28.73;44.03
2268;BME280;11052;43.338;25.502;2023-09-19T09:59:21;100675.09;;;28.50;44.97
2268;BME280;11052;43.338;25.502;2023-09-19T10:01:49;100674.19;;;28.42;45.42
2268;BME280;11052;43.338;25.502;2023-09-19T10:04:27;100671.44;;;28.51;43.55
2268;BME280;11052;43.338;25.502;2023-09-19T10:07:01;100675.41;;;28.47;43.66
2268;BME280;11052;43.338;25.502;2023-09-19T10:09:44;100674.38;;;28.66;43.62
2268;BME280;11052;43.338;25.502;2023-09-19T10:12:14;100670.97;;;28.91;45.64
2268;BME280;11052;43.338;25.502;2023-09-19T10:14:44;100663.34;;;29.22;42.97
2268;BME280;11052;43.338;25.502;2023-09-19T10:17:13;100666.34;;;29.53;43.30
2268;BME280;11052;43.338;25.502;2023-09-19T10:19:48;100663.50;;;29.89;42.54
2268;BME280;11052;43.338;25.502;2023-09-19T10:22:23;100664.91;;;30.01;42.21
2268;BME280;11052;43.338;25.502;2023-09-19T10:24:52;100654.03;;;30.03;43.57
2268;BME280;11052;43.338;25.502;2023-09-19T10:27:21;100656.13;;;29.83;39.10
2268;BME280;11052;43.338;25.502;2023-09-19T10:29:49;100648.94;;;29.83;41.01
2268;BME280;11052;43.338;25.502;2023-09-19T10:32:19;100650.97;;;29.89;43.43
2268;BME280;11052;43.338;25.502;2023-09-19T10:34:49;100651.47;;;29.93;40.27
2268;BME280;11052;43.338;25.502;2023-09-19T10:37:17;100647.75;;;29.78;40.13
2268;BME280;11052;43.338;25.502;2023-09-19T10:39:46;100645.56;;;29.73;43.35
2268;BME280;11052;43.338;25.502;2023-09-19T10:42:18;100647.41;;;29.39;39.17
2268;BME280;11052;43.338;25.502;2023-09-19T10:44:47;100636.50;;;29.32;39.28
2268;BME280;11052;43.338;25.502;2023-09-19T10:47:20;100642.53;;;29.68;41.32
2268;BME280;11052;43.338;25.502;2023-09-19T10:49:50;100636.78;;;29.97;44.85
2268;BME280;11052;43.338;25.502;2023-09-19T10:52:21;100640.19;;;30.15;41.65
2268;BME280;11052;43.338;25.502;2023-09-19T10:54:51;100642.22;;;30.46;42.76
2268;BME280;11052;43.338;25.502;2023-09-19T10:57:22;100634.19;;;30.38;40.53
2268;BME280;11052;43.338;25.502;2023-09-19T11:00:03;100633.34;;;30.37;40.21
2268;BME280;11052;43.338;25.502;2023-09-19T11:06:08;100629.44;;;29.23;41.27
2268;BME280;11052;43.338;25.502;2023-09-19T11:08:55;100630.44;;;29.22;41.16
2268;BME280;11052;43.338;25.502;2023-09-19T11:11:46;100632.97;;;29.23;40.33
2268;BME280;11052;43.338;25.502;2023-09-19T11:17:41;100629.81;;;29.02;41.41
2268;BME280;11052;43.338;25.502;2023-09-19T11:20:20;100623.66;;;29.01;41.98
2268;BME280;11052;43.338;25.502;2023-09-19T11:23:23;100626.31;;;29.01;43.67
2268;BME280;11052;43.338;25.502;2023-09-19T11:25:56;100629.41;;;29.15;42.15
2268;BME280;11052;43.338;25.502;2023-09-19T11:28:35;100613.31;;;29.32;40.97
2268;BME280;11052;43.338;25.502;2023-09-19T11:34:39;100610.75;;;29.23;43.44
2268;BME280;11052;43.338;25.502;2023-09-19T11:43:39;100602.09;;;29.29;39.59
2268;BME280;11052;43.338;25.502;2023-09-19T11:46:07;100598.44;;;29.30;39.57
2268;BME280;11052;43.338;25.502;2023-09-19T11:48:33;100594.22;;;29.53;41.83
2268;BME280;11052;43.338;25.502;2023-09-19T11:51:13;100589.94;;;29.77;38.64
2268;BME280;11052;43.338;25.502;2023-09-19T11:53:48;100574.59;;;29.87;38.40
2268;BME280;11052;43.338;25.502;2023-09-19T11:56:17;100577.59;;;29.84;36.57
2268;BME280;11052;43.338;25.502;2023-09-19T11:58:46;100581.69;;;30.12;36.90
2268;BME280;11052;43.338;25.502;2023-09-19T12:01:16;100578.69;;;30.23;36.07
2268;BME280;11052;43.338;25.502;2023-09-19T12:03:53;100571.31;;;30.42;35.87
2268;BME280;11052;43.338;25.502;2023-09-19T12:06:23;100575.16;;;30.47;35.88
2268;BME280;11052;43.338;25.502;2023-09-19T12:08:50;100567.81;;;30.57;36.52
2268;BME280;11052;43.338;25.502;2023-09-19T12:11:21;100568.47;;;30.68;36.54
2268;BME280;11052;43.338;25.502;2023-09-19T12:13:50;100568.81;;;30.73;37.47
2268;BME280;11052;43.338;25.502;2023-09-19T12:16:20;100572.34;;;30.65;37.68
2268;BME280;11052;43.338;25.502;2023-09-19T12:18:49;100565.78;;;30.51;36.69
2268;BME280;11052;43.338;25.502;2023-09-19T12:21:24;100560.63;;;30.25;35.18
2268;BME280;11052;43.338;25.502;2023-09-19T12:24:06;100555.13;;;30.11;35.75
2268;BME280;11052;43.338;25.502;2023-09-19T12:26:40;100555.94;;;30.11;35.75
2268;BME280;11052;43.338;25.502;2023-09-19T12:29:15;100555.25;;;30.33;36.84
2268;BME280;11052;43.338;25.502;2023-09-19T12:31:53;100552.28;;;30.28;34.05
2268;BME280;11052;43.338;25.502;2023-09-19T12:34:24;100553.63;;;30.16;35.11
2268;BME280;11052;43.338;25.502;2023-09-19T12:37:09;100556.88;;;29.86;36.80
2268;BME280;11052;43.338;25.502;2023-09-19T12:39:45;100553.53;;;29.84;36.98
2268;BME280;11052;43.338;25.502;2023-09-19T12:42:15;100549.75;;;30.03;36.56
2268;BME280;11052;43.338;25.502;2023-09-19T12:44:46;100554.22;;;29.94;36.71
2268;BME280;11052;43.338;25.502;2023-09-19T12:47:15;100549.00;;;29.76;36.71
2268;BME280;11052;43.338;25.502;2023-09-19T12:50:10;100545.19;;;29.87;35.48
2268;BME280;11052;43.338;25.502;2023-09-19T12:52:44;100545.03;;;29.96;35.94
2268;BME280;11052;43.338;25.502;2023-09-19T12:55:23;100541.75;;;30.03;34.90
2268;BME280;11052;43.338;25.502;2023-09-19T12:58:02;100544.75;;;30.08;35.67
2268;BME280;11052;43.338;25.502;2023-09-19T13:00:37;100544.91;;;30.06;35.95
2268;BME280;11052;43.338;25.502;2023-09-19T13:03:16;100537.03;;;29.96;36.27
2268;BME280;11052;43.338;25.502;2023-09-19T13:05:51;100534.50;;;29.95;36.92
2268;BME280;11052;43.338;25.502;2023-09-19T13:08:24;100530.72;;;30.06;37.46
2268;BME280;11052;43.338;25.502;2023-09-19T13:13:40;100526.31;;;29.96;37.25
2268;BME280;11052;43.338;25.502;2023-09-19T13:16:08;100535.22;;;30.13;36.69
2268;BME280;11052;43.338;25.502;2023-09-19T13:18:47;100532.88;;;30.10;36.77
2268;BME280;11052;43.338;25.502;2023-09-19T13:21:17;100527.13;;;29.73;36.30